Time;durP1;ratioP1;P1;durP2;ratioP2;P2;SDS_P1;SDS_P2;PMS_P1;PMS_P2;Temp;Humidity;BMP_temperature;BMP_pressure;BME280_temperature;BME280_humidity;BME280_pressure;Samples;Min_cycle;Max_cycle;Signal;HPM_P1;HPM_P2
2022/04/29 00:00:34;;;;;;;29.00;13.50;;;;;;;7.42;69.35;101486.68;106404;1270;22570;-76
2022/04/29 00:03:08;;;;;;;31.00;14.00;;;;;;;7.41;69.57;101494.79;106367;1271;22585;-76
2022/04/29 00:05:42;;;;;;;29.40;13.60;;;;;;;7.41;69.45;101486.39;106385;1271;22535;-76
2022/04/29 00:08:14;;;;;;;32.60;13.80;;;;;;;7.42;69.71;101482.32;106437;1270;25323;-76
2022/04/29 00:10:45;;;;;;;31.30;13.00;;;;;;;7.40;69.86;101490.13;106453;1271;24236;-75
2022/04/29 00:13:18;;;;;;;30.70;13.50;;;;;;;7.40;70.00;101488.55;106419;1271;22602;-76
2022/04/29 00:15:49;;;;;;;27.80;12.30;;;;;;;7.40;70.00;101488.16;106471;1271;22596;-76
2022/04/29 00:18:21;;;;;;;28.70;12.80;;;;;;;7.41;69.97;101482.35;106305;1271;22584;-76
2022/04/29 00:20:54;;;;;;;32.80;13.30;;;;;;;7.42;70.26;101482.15;106142;1271;25461;-76
2022/04/29 00:23:25;;;;;;;26.70;11.10;;;;;;;7.41;70.16;101488.90;106367;1271;25640;-76
2022/04/29 00:25:56;;;;;;;32.80;13.90;;;;;;;7.41;70.41;101487.42;106446;1270;25299;-75
2022/04/29 00:28:27;;;;;;;31.40;14.10;;;;;;;7.42;70.46;101486.45;106393;1271;23028;-77
2022/04/29 00:31:00;;;;;;;28.40;12.50;;;;;;;7.41;70.38;101485.52;106529;1271;22549;-76
2022/04/29 00:33:31;;;;;;;28.60;12.80;;;;;;;7.42;70.56;101483.83;106353;1271;22563;-76
2022/04/29 00:36:02;;;;;;;28.00;11.70;;;;;;;7.42;70.49;101487.00;106361;1271;22626;-76
2022/04/29 00:38:33;;;;;;;30.60;13.10;;;;;;;7.42;70.38;101482.71;106263;1271;22535;-76
2022/04/29 00:41:05;;;;;;;30.70;10.90;;;;;;;7.45;70.41;101476.39;106381;1271;22593;-75
2022/04/29 00:43:37;;;;;;;30.30;12.80;;;;;;;7.44;70.31;101478.22;106375;1271;22567;-76
2022/04/29 00:46:11;;;;;;;34.10;13.00;;;;;;;7.44;70.17;101479.27;106277;1271;22541;-76
2022/04/29 00:48:42;;;;;;;29.90;11.90;;;;;;;7.43;70.38;101469.91;106262;1271;22535;-77
2022/04/29 00:51:14;;;;;;;30.60;11.60;;;;;;;7.42;70.36;101469.61;106327;1270;22965;-76
2022/04/29 00:53:45;;;;;;;29.20;14.20;;;;;;;7.38;70.34;101469.21;106391;1271;22558;-76
2022/04/29 00:56:19;;;;;;;29.80;13.50;;;;;;;7.34;70.42;101471.98;106342;1271;22541;-76
2022/04/29 00:58:56;;;;;;;30.30;12.50;;;;;;;7.29;70.45;101471.05;106293;1271;22547;-76
2022/04/29 01:01:29;;;;;;;28.20;12.50;;;;;;;7.26;70.49;101473.41;106372;1271;22541;-77
2022/04/29 01:04:02;;;;;;;28.70;12.80;;;;;;;7.24;70.42;101469.98;106301;1271;24866;-76
2022/04/29 01:06:34;;;;;;;27.20;11.60;;;;;;;7.21;70.37;101463.29;106325;1271;22552;-76
2022/04/29 01:09:06;;;;;;;31.20;12.40;;;;;;;7.16;70.35;101462.76;106246;1270;22607;-76
2022/04/29 01:11:38;;;;;;;29.70;12.70;;;;;;;7.10;70.36;101463.49;106280;1270;25323;-76
2022/04/29 01:14:10;;;;;;;26.10;11.30;;;;;;;7.04;70.43;101465.36;106216;1271;22541;-76
2022/04/29 01:16:42;;;;;;;30.60;12.40;;;;;;;7.00;70.58;101460.29;106321;1270;22529;-76
2022/04/29 01:19:14;;;;;;;25.60;12.40;;;;;;;6.94;70.73;101459.28;106268;1271;22547;-76
2022/04/29 01:21:45;;;;;;;31.00;12.60;;;;;;;6.92;70.61;101458.29;106263;1271;22548;-76
2022/04/29 01:24:17;;;;;;;29.80;12.90;;;;;;;6.91;70.56;101455.38;106242;1271;22556;-77
2022/04/29 01:26:49;;;;;;;28.70;12.20;;;;;;;6.86;70.71;101453.48;106201;1271;22548;-76
2022/04/29 01:29:22;;;;;;;28.10;11.60;;;;;;;6.81;70.78;101450.08;106311;1271;24047;-76
2022/04/29 01:31:55;;;;;;;31.80;12.90;;;;;;;6.78;70.82;101450.36;106328;1270;25398;-76
2022/04/29 01:34:26;;;;;;;30.70;11.70;;;;;;;6.74;70.88;101447.83;106276;1270;25245;-76
2022/04/29 01:36:57;;;;;;;34.30;13.50;;;;;;;6.69;70.92;101446.34;106288;1270;22549;-76
2022/04/29 01:39:28;;;;;;;31.50;12.70;;;;;;;6.64;71.03;101452.21;106288;1271;23819;-77
2022/04/29 01:42:02;;;;;;;29.60;12.70;;;;;;;6.60;71.13;101445.87;106315;1270;22609;-77
2022/04/29 01:44:33;;;;;;;33.50;12.40;;;;;;;6.56;71.22;101443.95;106501;1270;24337;-76
2022/04/29 01:47:05;;;;;;;29.50;13.60;;;;;;;6.54;71.33;101442.88;106313;1271;22579;-76
2022/04/29 01:49:37;;;;;;;34.50;12.90;;;;;;;6.54;71.43;101440.96;106296;1271;24393;-76
2022/04/29 01:52:09;;;;;;;35.40;14.00;;;;;;;6.51;71.51;101438.81;106258;1271;23646;-76
2022/04/29 01:54:41;;;;;;;35.80;13.10;;;;;;;6.48;71.58;101439.48;106358;1270;22632;-76
2022/04/29 01:57:13;;;;;;;35.40;13.00;;;;;;;6.44;71.73;101441.61;106452;1271;22531;-77
2022/04/29 01:59:44;;;;;;;33.70;14.20;;;;;;;6.41;71.89;101437.13;106400;1271;25308;-76
2022/04/29 02:02:16;;;;;;;33.90;13.60;;;;;;;6.38;72.01;101429.73;106303;1271;22571;-76
2022/04/29 02:04:47;;;;;;;34.60;13.30;;;;;;;6.39;72.17;101434.98;106254;1270;25406;-77
2022/04/29 02:07:19;;;;;;;34.00;13.80;;;;;;;6.40;72.23;101427.10;106489;1269;25328;-76
2022/04/29 02:09:51;;;;;;;40.20;14.70;;;;;;;6.39;72.15;101426.23;106339;1271;25263;-76
2022/04/29 02:12:23;;;;;;;36.00;14.20;;;;;;;6.37;72.40;101437.08;106291;1271;26541;-76
2022/04/29 02:14:54;;;;;;;35.60;14.00;;;;;;;6.35;72.45;101426.70;106279;1271;25403;-76
2022/04/29 02:17:25;;;;;;;34.40;13.60;;;;;;;6.33;72.33;101428.88;106287;1270;26547;-76
2022/04/29 02:19:56;;;;;;;35.80;14.40;;;;;;;6.29;72.31;101428.33;106249;1270;22543;-76
2022/04/29 02:22:28;;;;;;;35.20;13.50;;;;;;;6.25;72.38;101434.80;106234;1270;22586;-76
2022/04/29 02:25:00;;;;;;;29.50;12.40;;;;;;;6.20;72.80;101449.54;106343;1270;22530;-76
2022/04/29 02:27:31;;;;;;;35.20;12.00;;;;;;;6.12;73.15;101444.35;106329;1270;27094;-76
2022/04/29 02:30:02;;;;;;;33.30;12.80;;;;;;;6.06;73.29;101445.73;106244;1270;24373;-76
2022/04/29 02:32:33;;;;;;;31.00;12.10;;;;;;;6.00;73.25;101445.16;106298;1271;22587;-76
2022/04/29 02:35:06;;;;;;;26.90;10.50;;;;;;;5.97;73.38;101441.50;106382;1271;22552;-76
2022/04/29 02:37:39;;;;;;;32.60;12.00;;;;;;;5.95;73.52;101433.38;106355;1270;23030;-76
2022/04/29 02:40:14;;;;;;;29.40;11.00;;;;;;;5.95;73.57;101434.72;106239;1271;22579;-76
2022/04/29 02:42:47;;;;;;;29.40;12.40;;;;;;;5.94;73.69;101435.84;106278;1270;22564;-76
2022/04/29 02:45:18;;;;;;;29.10;10.60;;;;;;;5.95;73.75;101432.91;106222;1270;24269;-76
2022/04/29 02:47:49;;;;;;;26.20;10.20;;;;;;;5.94;73.99;101431.97;106277;1271;22584;-77
2022/04/29 02:50:21;;;;;;;29.70;11.40;;;;;;;5.96;74.01;101422.05;106273;1270;26574;-76
2022/04/29 02:52:52;;;;;;;30.50;12.10;;;;;;;5.99;74.26;101429.20;106220;1270;24230;-76
2022/04/29 02:55:23;;;;;;;34.40;13.00;;;;;;;5.99;74.25;101430.62;106231;1271;22592;-76
2022/04/29 02:57:55;;;;;;;31.30;11.70;;;;;;;6.00;74.36;101432.80;106143;1271;22700;-77
2022/04/29 03:00:26;;;;;;;34.50;12.20;;;;;;;6.02;74.53;101427.88;106318;1270;24874;-76
2022/04/29 03:02:57;;;;;;;30.80;13.20;;;;;;;6.04;74.41;101431.33;106213;1271;25358;-76
2022/04/29 03:05:28;;;;;;;35.50;12.80;;;;;;;6.05;74.56;101431.80;106189;1271;22739;-76
2022/04/29 03:08:02;;;;;;;37.40;13.40;;;;;;;6.07;74.76;101435.33;106262;1270;26705;-76
2022/04/29 03:10:33;;;;;;;32.40;11.80;;;;;;;6.09;74.73;101428.48;106139;1271;22567;-77
2022/04/29 03:13:04;;;;;;;34.60;13.10;;;;;;;6.11;74.76;101435.20;106281;1270;22679;-77
2022/04/29 03:15:37;;;;;;;31.40;12.50;;;;;;;6.13;74.80;101437.14;106243;1270;24501;-76
2022/04/29 03:18:22;;;;;;;31.90;13.30;;;;;;;6.16;74.87;101434.23;106223;1270;22546;-76
2022/04/29 03:20:56;;;;;;;28.90;11.80;;;;;;;6.22;74.82;101432.63;106392;1270;22530;-77
2022/04/29 03:23:28;;;;;;;34.20;13.60;;;;;;;6.29;74.73;101434.89;106395;1270;25350;-77
2022/04/29 03:25:59;;;;;;;31.90;12.50;;;;;;;6.35;74.77;101427.04;106482;1270;22556;-77
2022/04/29 03:28:36;;;;;;;33.10;14.00;;;;;;;6.38;74.61;101427.52;106476;1270;22583;-76
2022/04/29 03:31:07;;;;;;;32.50;13.20;;;;;;;6.41;74.68;101430.80;106470;1271;24238;-76
2022/04/29 03:33:39;;;;;;;32.60;13.70;;;;;;;6.43;74.63;101434.73;106471;1270;22572;-76
2022/04/29 03:36:11;;;;;;;32.50;13.40;;;;;;;6.44;74.72;101434.80;106480;1270;22533;-75
2022/04/29 03:38:46;;;;;;;33.90;12.70;;;;;;;6.47;74.56;101432.77;106533;1270;22547;-76
2022/04/29 03:41:17;;;;;;;33.40;13.70;;;;;;;6.50;74.77;101438.42;107722;1270;22901;-78
2022/04/29 03:43:48;;;;;;;30.00;12.50;;;;;;;6.51;74.68;101443.96;107646;1270;25492;-77
2022/04/29 03:46:19;;;;;;;37.00;14.70;;;;;;;6.52;74.64;101446.55;106620;1271;25376;-77
2022/04/29 03:51:39;;;;;;;35.60;14.40;;;;;;;6.57;74.66;101439.17;106934;1270;22573;-79
2022/04/29 03:54:10;;;;;;;30.90;13.20;;;;;;;6.57;74.85;101445.05;106877;1270;24240;-79
2022/04/29 03:56:42;;;;;;;35.30;13.90;;;;;;;6.58;74.84;101449.30;107136;1270;22656;-79
2022/04/29 03:59:13;;;;;;;29.60;14.00;;;;;;;6.62;74.73;101444.87;107304;1270;24714;-81
2022/04/29 04:01:45;;;;;;;30.00;13.40;;;;;;;6.64;74.95;101446.83;107675;1270;22751;-80
2022/04/29 04:04:17;;;;;;;32.30;14.70;;;;;;;6.65;75.07;101451.56;107495;1270;22709;-79
2022/04/29 04:06:51;;;;;;;37.50;13.30;;;;;;;6.66;74.99;101456.06;107727;1270;22559;-79
2022/04/29 04:09:24;;;;;;;32.10;13.90;;;;;;;6.68;75.03;101455.72;107120;1270;22597;-80
2022/04/29 04:11:55;;;;;;;30.60;12.90;;;;;;;6.70;74.93;101452.59;107448;1270;22623;-79
2022/04/29 04:14:27;;;;;;;31.40;13.20;;;;;;;6.73;74.78;101448.88;107742;1270;22542;-80
2022/04/29 04:17:00;;;;;;;34.40;12.90;;;;;;;6.76;75.08;101451.43;107707;1270;22707;-80
2022/04/29 04:19:31;;;;;;;33.90;14.30;;;;;;;6.79;74.87;101458.61;107505;1270;22752;-80
2022/04/29 04:22:02;;;;;;;30.70;13.80;;;;;;;6.81;74.95;101456.73;107535;1270;22563;-79
2022/04/29 04:24:33;;;;;;;35.30;14.90;;;;;;;6.84;74.91;101461.44;107556;1270;25375;-79
2022/04/29 04:27:06;;;;;;;31.30;13.60;;;;;;;6.90;74.90;101457.53;106973;1271;22725;-78
2022/04/29 04:29:37;;;;;;;33.20;14.50;;;;;;;6.94;74.88;101465.30;107021;1271;23314;-79
2022/04/29 04:32:09;;;;;;;28.10;11.80;;;;;;;6.98;74.70;101471.11;107054;1270;22637;-78
2022/04/29 04:34:53;;;;;;;31.50;12.80;;;;;;;7.03;74.67;101467.05;107208;1270;26001;-78
2022/04/29 04:37:26;;;;;;;30.30;13.00;;;;;;;7.08;74.57;101465.43;107036;1270;23425;-79
2022/04/29 04:39:59;;;;;;;32.60;13.20;;;;;;;7.14;74.75;101466.52;107266;1270;23516;-80
2022/04/29 04:42:30;;;;;;;35.00;14.40;;;;;;;7.19;74.80;101470.70;107727;1270;22574;-79
2022/04/29 04:45:03;;;;;;;32.90;13.40;;;;;;;7.25;75.05;101476.61;107806;1270;22557;-80
2022/04/29 04:47:34;;;;;;;28.50;12.20;;;;;;;7.31;74.81;101477.99;107085;1270;22549;-79
2022/04/29 04:50:07;;;;;;;36.10;13.30;;;;;;;7.39;74.69;101473.02;107083;1270;22810;-79
2022/04/29 04:52:43;;;;;;;26.30;11.30;;;;;;;7.46;74.59;101482.70;107264;1270;25385;-79
2022/04/29 04:55:14;;;;;;;30.60;12.30;;;;;;;7.54;74.94;101488.42;107017;1270;22525;-80
2022/04/29 04:57:45;;;;;;;30.10;11.80;;;;;;;7.61;75.08;101489.71;107224;1270;24230;-80
2022/04/29 05:00:19;;;;;;;26.70;11.20;;;;;;;7.68;74.91;101493.12;107142;1270;22567;-78
2022/04/29 05:02:51;;;;;;;29.00;12.40;;;;;;;7.75;74.72;101489.10;107255;1270;22541;-78
2022/04/29 05:05:22;;;;;;;30.40;13.30;;;;;;;7.81;74.65;101490.05;106699;1270;614943;-79
2022/04/29 05:07:54;;;;;;;33.70;15.00;;;;;;;7.88;74.70;101493.32;107095;1270;24252;-78
2022/04/29 05:10:25;;;;;;;30.30;14.20;;;;;;;7.94;74.92;101501.61;107185;1270;23445;-79
2022/04/29 05:12:56;;;;;;;27.60;12.20;;;;;;;8.00;75.25;101503.00;106903;1270;25850;-79
2022/04/29 05:15:28;;;;;;;27.70;12.30;;;;;;;8.06;75.24;101508.35;106751;1270;22497;-78
2022/04/29 05:17:59;;;;;;;28.80;12.10;;;;;;;8.11;74.98;101509.58;106701;1270;24296;-77
2022/04/29 05:20:31;;;;;;;26.90;12.20;;;;;;;8.18;74.71;101505.14;106575;1270;24228;-77
2022/04/29 05:23:02;;;;;;;32.00;11.10;;;;;;;8.24;74.35;101505.17;106716;1270;22647;-78
2022/04/29 05:25:34;;;;;;;25.50;10.70;;;;;;;8.28;74.00;101501.89;106845;1270;23255;-78
2022/04/29 05:28:07;;;;;;;27.30;11.90;;;;;;;8.34;73.82;101500.19;106805;1270;25008;-78
2022/04/29 05:30:39;;;;;;;27.20;10.40;;;;;;;8.39;73.73;101506.96;106835;1270;24383;-78
2022/04/29 05:33:11;;;;;;;28.10;11.20;;;;;;;8.44;73.86;101507.71;107175;1270;22618;-77
2022/04/29 05:35:44;;;;;;;28.40;11.40;;;;;;;8.51;73.76;101509.64;106571;1270;22569;-75
2022/04/29 05:38:15;;;;;;;24.50;11.00;;;;;;;8.60;73.68;101511.15;106669;1270;24294;-77
2022/04/29 05:43:36;;;;;;;22.10;10.50;;;;;;;8.82;73.58;101508.45;106467;1270;24244;-77
2022/04/29 05:46:07;;;;;;;25.30;10.20;;;;;;;8.95;73.33;101511.80;106478;1270;25386;-77
2022/04/29 05:48:38;;;;;;;24.00;8.00;;;;;;;9.06;73.03;101511.27;106554;1270;25500;-77
2022/04/29 05:51:10;;;;;;;22.10;8.60;;;;;;;9.16;71.89;101512.98;106539;1270;25045;-76
2022/04/29 05:53:41;;;;;;;17.80;6.70;;;;;;;9.26;71.63;101512.88;106685;1270;24244;-77
2022/04/29 05:56:13;;;;;;;21.00;7.10;;;;;;;9.32;70.83;101518.10;106862;1270;22658;-77
2022/04/29 05:58:44;;;;;;;20.10;7.20;;;;;;;9.38;70.91;101516.27;106927;1270;25962;-78
2022/04/29 06:01:15;;;;;;;24.40;8.30;;;;;;;9.44;71.15;101512.21;106667;1271;22564;-77
2022/04/29 06:03:46;;;;;;;21.50;7.50;;;;;;;9.49;70.96;101512.70;106615;1270;22568;-77
2022/04/29 06:06:18;;;;;;;24.40;8.10;;;;;;;9.53;70.36;101509.89;106667;1270;22562;-77
2022/04/29 06:08:49;;;;;;;20.20;6.90;;;;;;;9.58;69.80;101513.89;106702;1270;23074;-77
2022/04/29 06:11:20;;;;;;;22.90;6.90;;;;;;;9.65;70.18;101520.29;106717;1270;22550;-77
2022/04/29 06:13:53;;;;;;;23.10;5.00;;;;;;;9.72;70.00;101521.11;106522;1270;22549;-76
2022/04/29 06:16:27;;;;;;;18.70;4.90;;;;;;;9.82;68.70;101519.55;106460;1270;22544;-76
2022/04/29 06:18:58;;;;;;;19.80;6.40;;;;;;;9.88;67.87;101523.36;106502;1270;24166;-76
2022/04/29 06:21:30;;;;;;;19.60;5.90;;;;;;;9.94;68.13;101524.69;106457;1271;22554;-76
2022/04/29 06:24:01;;;;;;;26.30;6.40;;;;;;;10.02;68.49;101527.34;106618;1270;24257;-77
2022/04/29 06:26:33;;;;;;;13.60;3.50;;;;;;;10.12;67.50;101531.49;106496;1270;22666;-77
2022/04/29 06:29:05;;;;;;;15.10;5.10;;;;;;;10.21;66.79;101527.01;106474;1270;22555;-77
2022/04/29 06:31:36;;;;;;;13.70;3.80;;;;;;;10.30;66.70;101526.19;106571;1270;23421;-77
2022/04/29 06:34:08;;;;;;;11.70;3.70;;;;;;;10.38;66.37;101529.02;106526;1270;25381;-77
2022/04/29 06:36:39;;;;;;;16.90;4.10;;;;;;;10.45;65.82;101525.42;106579;1270;22532;-77
2022/04/29 06:39:11;;;;;;;14.00;4.40;;;;;;;10.51;65.67;101525.02;106564;1270;24318;-77
2022/04/29 06:41:45;;;;;;;10.90;3.60;;;;;;;10.55;65.39;101525.67;106508;1270;22556;-76
2022/04/29 06:44:16;;;;;;;13.30;3.00;;;;;;;10.60;64.76;101524.16;106506;1271;23981;-77
2022/04/29 06:46:50;;;;;;;11.90;2.90;;;;;;;10.68;64.34;101527.03;106497;1270;22591;-77
2022/04/29 06:49:21;;;;;;;11.00;2.70;;;;;;;10.75;63.95;101525.36;106653;1270;25373;-77
2022/04/29 06:51:52;;;;;;;10.10;2.70;;;;;;;10.84;63.57;101523.23;106546;1270;25384;-77
2022/04/29 06:54:23;;;;;;;13.20;4.10;;;;;;;10.90;63.59;101526.59;106572;1270;22608;-76
2022/04/29 06:56:54;;;;;;;12.00;3.40;;;;;;;10.97;62.99;101528.67;106537;1270;22528;-76
2022/04/29 06:59:26;;;;;;;11.60;3.40;;;;;;;11.04;62.86;101525.58;106605;1270;23085;-77
2022/04/29 07:01:58;;;;;;;15.40;3.70;;;;;;;11.12;62.04;101526.30;106612;1270;22594;-76
2022/04/29 07:04:29;;;;;;;13.10;2.90;;;;;;;11.17;62.30;101529.02;106561;1270;22562;-77
2022/04/29 07:07:01;;;;;;;25.10;4.30;;;;;;;11.23;61.70;101530.80;106613;1270;26526;-77
2022/04/29 07:09:33;;;;;;;11.60;3.30;;;;;;;11.33;61.69;101526.55;106546;1270;24251;-77
2022/04/29 07:12:04;;;;;;;11.10;2.80;;;;;;;11.41;61.48;101527.20;106533;1270;22671;-76
2022/04/29 07:14:35;;;;;;;15.20;3.60;;;;;;;11.50;60.88;101528.33;106520;1270;22573;-76
2022/04/29 07:17:09;;;;;;;15.80;3.00;;;;;;;11.57;60.88;101532.23;106640;1270;22540;-76
2022/04/29 07:19:40;;;;;;;13.90;2.70;;;;;;;11.65;60.17;101532.60;106609;1270;23263;-77
2022/04/29 07:22:12;;;;;;;15.50;3.60;;;;;;;11.73;60.02;101532.16;106598;1270;25963;-77
2022/04/29 07:24:43;;;;;;;10.20;2.60;;;;;;;11.80;59.70;101534.36;106595;1270;22943;-76
2022/04/29 07:27:15;;;;;;;12.90;3.20;;;;;;;11.87;59.48;101534.42;106637;1270;22525;-77
2022/04/29 07:29:46;;;;;;;10.60;2.10;;;;;;;11.93;59.22;101533.69;106545;1270;22586;-77
2022/04/29 07:32:17;;;;;;;19.90;3.20;;;;;;;12.04;58.56;101532.59;106598;1270;24393;-77
2022/04/29 07:43:16;;;;;;;8.60;2.00;;;;;;;12.27;57.60;101529.02;106581;1271;24238;-77
2022/04/29 07:45:48;;;;;;;10.50;2.40;;;;;;;12.34;57.32;101527.88;106595;1270;22608;-77
2022/04/29 07:48:22;;;;;;;11.50;2.00;;;;;;;12.41;56.69;101528.61;106606;1270;25484;-77
2022/04/29 07:50:53;;;;;;;11.30;1.80;;;;;;;12.48;56.83;101522.04;106731;1270;22540;-77
2022/04/29 07:53:27;;;;;;;12.80;2.20;;;;;;;12.54;56.16;101529.08;106572;1270;25252;-77
2022/04/29 07:55:58;;;;;;;7.80;1.70;;;;;;;12.61;56.14;101530.25;106770;1270;22528;-75
2022/04/29 07:58:29;;;;;;;8.80;1.90;;;;;;;12.74;55.41;101529.55;106616;1270;24263;-77
2022/04/29 08:01:00;;;;;;;7.70;1.90;;;;;;;12.84;54.78;101529.02;106563;1270;22824;-77
2022/04/29 08:03:31;;;;;;;7.50;1.70;;;;;;;12.90;53.91;101533.11;106648;1270;22614;-77
2022/04/29 08:06:03;;;;;;;8.30;1.70;;;;;;;12.98;54.45;101534.52;106647;1268;25316;-77
2022/04/29 08:08:35;;;;;;;10.60;1.70;;;;;;;13.03;52.93;101538.42;106557;1270;24452;-77
2022/04/29 08:11:07;;;;;;;6.70;1.70;;;;;;;13.06;53.38;101534.45;106621;1270;22581;-77
2022/04/29 08:13:38;;;;;;;9.30;2.40;;;;;;;13.12;53.08;101531.80;106770;1270;23505;-77
2022/04/29 08:16:10;;;;;;;8.00;1.90;;;;;;;13.22;54.13;101528.24;106671;1270;24263;-77
2022/04/29 08:18:42;;;;;;;7.80;1.80;;;;;;;13.32;54.31;101529.23;106666;1270;24264;-77
2022/04/29 08:21:13;;;;;;;8.50;1.50;;;;;;;13.40;52.48;101528.31;106660;1271;22707;-78
2022/04/29 08:23:44;;;;;;;11.80;2.00;;;;;;;13.42;52.99;101524.05;106553;1270;22668;-77
2022/04/29 08:26:16;;;;;;;7.90;1.70;;;;;;;13.49;52.94;101529.03;106496;1271;22671;-77
2022/04/29 08:28:47;;;;;;;7.50;1.90;;;;;;;13.55;52.48;101526.23;106638;1270;24238;-77
2022/04/29 08:31:21;;;;;;;12.90;1.90;;;;;;;13.59;52.19;101521.20;106650;1270;22574;-78
2022/04/29 08:33:52;;;;;;;8.50;2.20;;;;;;;13.63;51.76;101517.02;106641;1270;22525;-77
2022/04/29 08:36:24;;;;;;;11.50;2.60;;;;;;;13.61;50.60;101512.53;106628;1270;24682;-77
2022/04/29 08:38:55;;;;;;;11.50;2.20;;;;;;;13.61;51.31;101513.80;106692;1270;22535;-77
2022/04/29 08:41:27;;;;;;;8.70;2.10;;;;;;;13.69;52.25;101509.62;106704;1271;22571;-77
2022/04/29 08:43:58;;;;;;;9.00;1.90;;;;;;;13.77;51.93;101505.14;106613;1270;26664;-77
2022/04/29 08:46:30;;;;;;;9.40;2.40;;;;;;;13.83;51.23;101506.04;106476;1271;22591;-76
2022/04/29 08:49:02;;;;;;;7.80;1.90;;;;;;;13.86;50.70;101506.19;106597;1270;24234;-77
2022/04/29 08:51:35;;;;;;;8.00;1.70;;;;;;;13.90;50.48;101503.38;106693;1270;22801;-77
2022/04/29 08:54:07;;;;;;;9.20;1.80;;;;;;;13.97;50.64;101496.08;106633;1270;25716;-77
2022/04/29 08:59:29;;;;;;;7.60;1.50;;;;;;;13.91;49.40;101498.75;106833;1270;23695;-78
2022/04/29 09:02:00;;;;;;;12.10;2.10;;;;;;;13.94;49.87;101502.86;106652;1271;22560;-77
2022/04/29 09:04:31;;;;;;;10.10;2.40;;;;;;;13.94;49.19;101494.34;106730;1270;25447;-77
2022/04/29 09:07:02;;;;;;;7.80;2.10;;;;;;;13.95;49.93;101494.21;106840;1270;22539;-79
2022/04/29 09:09:34;;;;;;;10.60;2.50;;;;;;;14.04;49.71;101495.19;106843;1270;22777;-77
2022/04/29 09:12:18;;;;;;;8.00;1.60;;;;;;;14.07;49.34;101499.77;106671;1271;22611;-76
2022/04/29 09:14:50;;;;;;;8.50;2.30;;;;;;;14.04;49.24;101494.09;106756;1271;22532;-77
2022/04/29 09:17:30;;;;;;;8.40;2.50;;;;;;;14.08;49.60;101490.89;106871;1270;25458;-77
2022/04/29 09:20:02;;;;;;;9.60;1.80;;;;;;;14.14;49.59;101489.54;107110;1270;25379;-79
2022/04/29 09:22:35;;;;;;;8.10;2.10;;;;;;;14.16;49.03;101489.42;107042;1270;22682;-77
2022/04/29 09:25:10;;;;;;;10.20;2.00;;;;;;;14.22;49.50;101488.41;107289;1270;23926;-78
2022/04/29 09:30:57;;;;;;;8.40;2.00;;;;;;;14.36;48.38;101481.44;101710;1317;548286;-62
2022/04/29 09:33:29;;;;;;;8.90;2.10;;;;;;;14.38;48.06;101483.60;104759;1287;22548;-63
2022/04/29 09:36:01;;;;;;;9.30;2.00;;;;;;;14.42;48.40;101486.14;104844;1287;22557;-64
2022/04/29 09:41:25;;;;;;;9.00;2.40;;;;;;;14.47;48.15;101473.59;104513;1287;22663;-63
2022/04/29 09:43:57;;;;;;;8.70;2.40;;;;;;;14.52;47.93;101468.75;100906;1285;5369268;-63
2022/04/29 09:46:28;;;;;;;9.00;2.50;;;;;;;14.60;48.19;101465.05;104829;1285;22575;-63
2022/04/29 09:49:08;;;;;;;9.50;2.40;;;;;;;14.62;47.01;101466.61;104838;1285;23227;-64
2022/04/29 09:51:48;;;;;;;9.80;2.50;;;;;;;14.63;47.44;101468.31;104889;1284;22633;-63
2022/04/29 09:54:24;;;;;;;8.70;1.90;;;;;;;14.62;46.99;101465.89;105372;1277;23858;-63
2022/04/29 09:57:13;;;;;;;9.10;2.20;;;;;;;14.61;47.30;101466.04;105277;1277;22607;-63
2022/04/29 09:59:47;;;;;;;9.60;2.10;;;;;;;14.66;47.52;101460.46;105573;1277;22921;-63
2022/04/29 10:02:22;;;;;;;11.40;2.60;;;;;;;14.73;46.77;101457.04;106621;1276;22563;-64
2022/04/29 10:04:57;;;;;;;8.90;2.30;;;;;;;14.81;47.07;101457.36;105491;1278;22543;-63
2022/04/29 10:07:29;;;;;;;6.00;1.90;;;;;;;14.92;46.86;101456.63;105880;1277;22539;-62
2022/04/29 10:10:03;;;;;;;9.30;2.60;;;;;;;14.99;45.76;101455.13;105705;1276;22625;-63
2022/04/29 10:12:35;;;;;;;7.50;1.70;;;;;;;14.99;46.14;101453.85;105572;1276;26501;-63
2022/04/29 10:15:16;;;;;;;7.40;1.90;;;;;;;15.03;46.10;101458.20;105553;1276;26638;-63
2022/04/29 10:23:32;;;;;;;10.60;1.70;;;;;;;15.09;45.75;101456.88;105494;1276;22572;-64
2022/04/29 10:26:07;;;;;;;8.30;1.40;;;;;;;15.10;45.63;101454.56;105545;1276;22570;-63
2022/04/29 10:28:40;;;;;;;7.40;1.30;;;;;;;15.14;45.16;101454.42;105553;1276;23181;-63
2022/04/29 10:31:20;;;;;;;7.40;1.60;;;;;;;15.18;45.19;101450.02;105508;1276;22707;-63
2022/04/29 10:33:50;;;;;;;;;;;;;;;15.22;45.22;101445.41;105705;1276;23191;-63
2022/04/29 10:36:26;;;;;;;8.30;1.70;;;;;;;15.24;46.12;101440.33;105437;1276;23013;-63
2022/04/29 10:39:04;;;;;;;9.60;2.30;;;;;;;15.22;45.36;101450.23;105450;1276;26032;-63
2022/04/29 10:41:36;;;;;;;6.60;1.50;;;;;;;15.08;44.81;101447.10;105511;1275;24333;-63
2022/04/29 10:44:08;;;;;;;7.30;1.50;;;;;;;14.97;45.37;101437.77;105495;1275;23050;-63
2022/04/29 10:46:41;;;;;;;8.20;1.60;;;;;;;15.01;45.61;101434.62;105749;1275;22535;-63
2022/04/29 10:49:30;;;;;;;7.90;1.40;;;;;;;15.10;45.89;101432.51;105585;1275;22557;-63
2022/04/29 10:52:03;;;;;;;10.00;1.70;;;;;;;15.27;44.83;101431.39;105686;1276;24332;-64
2022/04/29 10:54:47;;;;;;;8.40;1.30;;;;;;;15.35;44.49;101433.09;105596;1275;22580;-64
2022/04/29 10:57:36;;;;;;;7.50;1.40;;;;;;;15.44;44.99;101430.57;105525;1276;22541;-63
2022/04/29 11:00:13;;;;;;;5.50;1.40;;;;;;;15.45;44.76;101425.63;105554;1276;24397;-63
2022/04/29 11:02:45;;;;;;;7.60;1.40;;;;;;;15.45;44.25;101425.88;105665;1275;22571;-63
2022/04/29 11:05:37;;;;;;;6.10;1.20;;;;;;;15.42;44.47;101423.04;105642;1275;23001;-63
2022/04/29 11:08:10;;;;;;;8.70;1.50;;;;;;;15.44;44.43;101425.91;105637;1276;24267;-63
2022/04/29 11:10:58;;;;;;;5.70;1.20;;;;;;;15.41;43.70;101417.95;105577;1275;22619;-63
2022/04/29 11:13:34;;;;;;;8.30;1.50;;;;;;;15.37;44.61;101426.06;105750;1276;22907;-63
2022/04/29 11:16:14;;;;;;;8.70;1.40;;;;;;;15.25;44.03;101429.00;105434;1275;25423;-63
2022/04/29 11:18:46;;;;;;;8.80;1.50;;;;;;;15.13;43.61;101421.73;105581;1275;22540;-64
2022/04/29 11:24:44;;;;;;;8.00;1.90;;;;;;;15.18;43.64;101418.76;105483;1276;24440;-64
2022/04/29 11:27:25;;;;;;;9.40;1.60;;;;;;;15.29;43.66;101419.98;105425;1276;22535;-63
2022/04/29 11:30:01;;;;;;;6.60;1.60;;;;;;;15.34;43.37;101409.78;105719;1276;22707;-63
2022/04/29 11:32:40;;;;;;;6.40;1.00;;;;;;;15.38;43.13;101409.20;105517;1276;22542;-64
2022/04/29 11:35:11;;;;;;;7.40;1.10;;;;;;;15.48;42.87;101407.97;105441;1276;22560;-64
2022/04/29 11:37:44;;;;;;;8.70;1.40;;;;;;;15.60;42.15;101398.66;105477;1276;22556;-63
2022/04/29 11:40:15;;;;;;;5.20;1.10;;;;;;;15.69;42.68;101396.30;105479;1276;23086;-63
2022/04/29 11:42:53;;;;;;;12.10;1.20;;;;;;;15.82;42.82;101403.16;105536;1276;25327;-64
2022/04/29 11:45:26;;;;;;;4.70;0.70;;;;;;;15.89;41.77;101402.20;105488;1276;24683;-64
2022/04/29 11:48:06;;;;;;;6.10;1.20;;;;;;;15.86;40.95;101399.39;105530;1276;22645;-64
2022/04/29 11:50:39;;;;;;;4.20;0.90;;;;;;;15.82;40.36;101394.33;105556;1276;25536;-64
2022/04/29 11:53:15;;;;;;;6.20;1.10;;;;;;;15.85;40.91;101387.35;105527;1276;22615;-64
2022/04/29 11:55:53;;;;;;;7.00;1.20;;;;;;;15.89;41.14;101384.86;105512;1276;22537;-63
2022/04/29 11:58:28;;;;;;;6.70;1.10;;;;;;;15.91;41.50;101373.05;105544;1276;24312;-64
2022/04/29 12:01:01;;;;;;;8.80;1.80;;;;;;;15.90;42.71;101377.18;105749;1275;22591;-64
2022/04/29 12:03:33;;;;;;;8.60;1.40;;;;;;;15.81;41.31;101379.77;105510;1275;22544;-63
2022/04/29 12:06:05;;;;;;;11.00;1.30;;;;;;;15.72;41.81;101376.90;105492;1275;22808;-64
2022/04/29 12:08:41;;;;;;;6.80;1.50;;;;;;;15.69;41.92;101375.69;105795;1275;25274;-64